Strona główna
METAR-TAF:

METAR-TAF

Lotnisko :

Port lotniczy Lyon-Saint-Exupéry

Lyon / Saint Exupéry, Francja

Szerokość geograficzna: 45-44N, Długość geograficzna: 005-05E, wysokość: 248 m

Aktualna obserwacja pogody

Raport powstał 31 minut temu, godzina 08:00 UTC
Wiatr 5 kt od północno-północny zachód, zmienny między zachodnio-północny zachód i północ
Temperatura 18°C
Wilgotność 56%
Ciśnienie 1027 hPa
Widzialność 10 km lub więcej
Brak chmur poniżej 1500 m i brak chmur cumulonimbus

METAR: LFLL 280800Z AUTO 34005KT 300V360 CAVOK 18/09 Q1027 NOSIG

czas: 10:31 (08:31 UTC)

Prognoza

Raport powstał 3 godziny i 31 minut temu, godzina 05:00 UTC
Prognoza ważna od 28 godzina 06 UTC do 29 godzina 12 UTC
Wiatr 5 kt od północ
Widzialność 10 km lub więcej
Brak chmur poniżej 1500 m i brak chmur cumulonimbus
Przejściowo
od 28 godzina 12 UTC do 28 godzina 20 UTC
Wiatr 12 kt od północno-północny wschód

TAF: LFLL 280500Z 2806/2912 36005KT CAVOK TEMPO 2812/2820 02012KT

Obserwacja i prognoza pogody dla ponad 4000 lotnisk (raport METAR i TAF).

Dostępne stacje oznaczono żółtymi i czerwonymi punktami na mapie.

Najedź kursorem aby zobaczyć nazwę stacji.

Kliknij aby zobaczyć obserwacje i prognozy pogody.

Aby zmienić mapę: kliknij na zielony przycisk z czarnym krzyżykiem, aby powiększyć; na zielony przycisk z myślnikiem, aby pomniejszyć; na zielone strzałki, aby przejść do map sąsiednich.


METAR-TAF: